Latest Weather Observations for Inner Beacon

IDQ60801

Issued at 10:35 pm EST Wednesday 23 April 2014 (issued every 30 minutes, with the page automatically refreshed every 10 minutes)

About weather observations | Map of weather stations | Latest weather observations for QLD | Other Formats
Station Details ID: 040926 Name: INNER RECIPROCAL MARKER Lat: -27.26 Lon: 153.24 Height: 20.0 m
Data from the previous 72 hours. | See also: Recent months for locations in Queensland
Date/Time
EST
Temp
°C
App
Temp
°C
Dew
Point
Rel
Hum
%
Delta-T
°C
Wind Press
QNH
hPa
Press
MSL
hPa
Rain
since 9 am
mm
Dir
 
Spd
km/h
Gust
km/h
Spd
kts
Gust
kts
23/10:30pm - - - - - NW 7 11 4 6 - - -
23/10:00pm - - - - - NW 13 15 7 8 - - -
23/09:30pm - - - - - NW 15 17 8 9 - - -
23/09:00pm - - - - - NNW 17 19 9 10 - - -
23/08:30pm - - - - - NNW 19 20 10 11 - - -
23/08:00pm - - - - - NNW 20 24 11 13 - - -
23/07:30pm - - - - - N 22 26 12 14 - - -
23/07:00pm - - - - - NE 15 19 8 10 - - -
23/06:30pm - - - - - NE 17 19 9 10 - - -
23/06:00pm - - - - - NE 19 20 10 11 - - -
23/05:30pm - - - - - NE 17 19 9 10 - - -
23/05:00pm - - - - - NE 15 19 8 10 - - -
23/04:30pm - - - - - NE 17 19 9 10 - - -
23/04:00pm - - - - - NE 15 19 8 10 - - -
23/03:30pm - - - - - NE 15 15 8 8 - - -
23/03:00pm - - - - - NE 13 15 7 8 - - -
23/02:30pm - - - - - NE 11 13 6 7 - - -
23/02:00pm - - - - - NE 7 9 4 5 - - -
23/01:30pm - - - - - ENE 4 6 2 3 - - -
23/01:00pm - - - - - ENE 2 4 1 2 - - -
23/12:30pm - - - - - ESE 4 7 2 4 - - -
23/12:00pm - - - - - SE 4 6 2 3 - - -
23/11:30am - - - - - SE 6 7 3 4 - - -
23/11:00am - - - - - ESE 7 11 4 6 - - -
23/10:30am - - - - - SSE 7 9 4 5 - - -
23/10:00am - - - - - SSW 11 15 6 8 - - -
23/09:30am - - - - - SSW 15 19 8 10 - - -
23/09:00am - - - - - S 17 19 9 10 - - -
23/08:30am - - - - - S 15 17 8 9 - - -
23/08:00am - - - - - SSW 17 19 9 10 - - -
23/07:30am - - - - - SSW 13 15 7 8 - - -
23/07:00am - - - - - SSW 15 19 8 10 - - -
23/06:30am - - - - - SSW 11 15 6 8 - - -
23/06:00am - - - - - SW 15 17 8 9 - - -
23/05:30am - - - - - SW 13 17 7 9 - - -
23/05:00am - - - - - SSW 6 7 3 4 - - -
23/04:30am - - - - - SW 6 7 3 4 - - -
23/04:00am - - - - - SW 7 9 4 5 - - -
23/03:30am - - - - - SW 9 11 5 6 - - -
23/03:00am - - - - - SW 6 7 3 4 - - -
23/02:30am - - - - - SW 6 7 3 4 - - -
23/02:00am - - - - - WSW 7 9 4 5 - - -
23/01:30am - - - - - W 6 7 3 4 - - -
23/01:00am - - - - - W 6 7 3 4 - - -
23/12:30am - - - - - WNW 6 9 3 5 - - -
23/12:00am - - - - - W 9 13 5 7 - - -
 
Date/Time
EST
Temp
°C
App
Temp
°C
Dew
Point
Rel
Hum
%
Delta-T
°C
Wind Press
QNH
hPa
Press
MSL
hPa
Rain
since 9 am
mm
Dir
 
Spd
km/h
Gust
km/h
Spd
kts
Gust
kts
22/11:30pm - - - - - W 11 13 6 7 - - -
22/11:00pm - - - - - NE 11 11 6 6 - - -
22/10:30pm - - - - - NE 11 13 6 7 - - -
22/10:00pm - - - - - NE 13 15 7 8 - - -
22/09:30pm - - - - - NE 17 19 9 10 - - -
22/09:00pm - - - - - NE 15 17 8 9 - - -
22/08:30pm - - - - - NE 15 17 8 9 - - -
22/08:00pm - - - - - NE 17 19 9 10 - - -
22/07:30pm - - - - - NE 17 19 9 10 - - -
22/07:00pm - - - - - NE 19 20 10 11 - - -
22/06:30pm - - - - - NE 17 19 9 10 - - -
22/06:00pm - - - - - NE 17 19 9 10 - - -
22/05:30pm - - - - - ENE 19 20 10 11 - - -
22/05:00pm - - - - - E 7 11 4 6 - - -
22/04:30pm - - - - - ESE 6 6 3 3 - - -
22/04:00pm - - - - - ESE 6 7 3 4 - - -
22/03:30pm - - - - - E 6 7 3 4 - - -
22/03:00pm - - - - - ENE 7 9 4 5 - - -
22/02:30pm - - - - - E 4 6 2 3 - - -
22/02:00pm - - - - - ENE 6 9 3 5 - - -
22/01:30pm - - - - - ENE 4 7 2 4 - - -
22/01:00pm - - - - - E 2 4 1 2 - - -
22/12:30pm - - - - - CALM 0 0 0 0 - - -
22/12:00pm - - - - - SW 4 6 2 3 - - -
22/11:30am - - - - - WSW 6 6 3 3 - - -
22/11:00am - - - - - WSW 6 7 3 4 - - -
22/10:30am - - - - - SSW 6 7 3 4 - - -
22/10:00am - - - - - SSW 7 9 4 5 - - -
22/09:30am - - - - - SSW 9 11 5 6 - - -
22/09:00am - - - - - SW 9 11 5 6 - - -
22/08:30am - - - - - SW 13 15 7 8 - - -
22/08:00am - - - - - SW 11 13 6 7 - - -
22/07:30am - - - - - SW 9 11 5 6 - - -
22/07:00am - - - - - SSW 7 9 4 5 - - -
22/06:30am - - - - - SSW 7 9 4 5 - - -
22/06:00am - - - - - SSW 7 9 4 5 - - -
22/05:30am - - - - - SW 7 9 4 5 - - -
22/05:00am - - - - - WSW 9 11 5 6 - - -
22/04:30am - - - - - WSW 9 11 5 6 - - -
22/04:00am - - - - - WNW 7 9 4 5 - - -
22/03:30am - - - - - NNW 7 9 4 5 - - -
22/03:00am - - - - - NNW 6 7 3 4 - - -
22/02:30am - - - - - NNW 7 9 4 5 - - -
22/02:00am - - - - - NNW 9 11 5 6 - - -
22/01:30am - - - - - NNW 11 13 6 7 - - -
22/01:00am - - - - - NW 11 13 6 7 - - -
22/12:30am - - - - - NW 13 15 7 8 - - -
22/12:00am - - - - - NE 20 24 11 13 - - -
 
Date/Time
EST
Temp
°C
App
Temp
°C
Dew
Point
Rel
Hum
%
Delta-T
°C
Wind Press
QNH
hPa
Press
MSL
hPa
Rain
since 9 am
mm
Dir
 
Spd
km/h
Gust
km/h
Spd
kts
Gust
kts
21/11:30pm - - - - - NE 22 26 12 14 - - -
21/11:00pm - - - - - NE 22 26 12 14 - - -
21/10:30pm - - - - - NE 22 26 12 14 - - -
21/10:00pm - - - - - NE 22 26 12 14 - - -
21/09:30pm - - - - - NE 20 24 11 13 - - -
21/09:00pm - - - - - NE 22 26 12 14 - - -
21/08:30pm - - - - - NE 22 26 12 14 - - -
21/08:00pm - - - - - NE 24 28 13 15 - - -
21/07:30pm - - - - - NE 24 28 13 15 - - -
21/07:00pm - - - - - NE 24 30 13 16 - - -
21/06:30pm - - - - - NE 26 30 14 16 - - -
21/06:00pm - - - - - NE 26 30 14 16 - - -
21/05:30pm - - - - - NE 26 28 14 15 - - -
21/05:00pm - - - - - NE 24 30 13 16 - - -
21/04:30pm - - - - - NE 26 28 14 15 - - -
21/04:00pm - - - - - NE 24 28 13 15 - - -
21/03:30pm - - - - - NE 20 24 11 13 - - -
21/03:00pm - - - - - NE 15 19 8 10 - - -
21/02:30pm - - - - - NE 15 17 8 9 - - -
21/02:00pm - - - - - NE 11 13 6 7 - - -
21/01:30pm - - - - - NE 9 11 5 6 - - -
21/01:00pm - - - - - NE 6 7 3 4 - - -
21/12:30pm - - - - - CALM 0 0 0 0 - - -
21/12:00pm - - - - - CALM 0 0 0 0 - - -
21/11:30am - - - - - ENE 4 6 2 3 - - -
21/11:00am - - - - - SE 2 4 1 2 - - -
21/10:30am - - - - - S 4 6 2 3 - - -
21/10:00am - - - - - SSW 7 9 4 5 - - -
21/09:30am - - - - - SSW 7 7 4 4 - - -
21/09:00am - - - - - S 6 9 3 5 - - -
21/08:30am - - - - - SSW 7 9 4 5 - - -
21/08:00am - - - - - SW 9 11 5 6 - - -
21/07:30am - - - - - SW 9 11 5 6 - - -
21/07:00am - - - - - SW 9 11 5 6 - - -
21/06:30am - - - - - SW 11 13 6 7 - - -
21/06:00am - - - - - SW 9 9 5 5 - - -
21/05:30am - - - - - SW 7 9 4 5 - - -
21/05:00am - - - - - WSW 6 7 3 4 - - -
21/04:30am - - - - - WSW 6 6 3 3 - - -
21/04:00am - - - - - W 4 6 2 3 - - -
21/03:30am - - - - - W 6 7 3 4 - - -
21/03:00am - - - - - W 7 9 4 5 - - -
21/02:30am - - - - - WNW 7 11 4 6 - - -
21/02:00am - - - - - NNW 9 13 5 7 - - -
21/01:30am - - - - - NNW 11 15 6 8 - - -
21/01:00am - - - - - NNW 13 15 7 8 - - -
21/12:30am - - - - - NNW 15 17 8 9 - - -
21/12:00am - - - - - NNW 15 17 8 9 - - -
 
Date/Time
EST
Temp
°C
App
Temp
°C
Dew
Point
Rel
Hum
%
Delta-T
°C
Wind Press
QNH
hPa
Press
MSL
hPa
Rain
since 9 am
mm
Dir
 
Spd
km/h
Gust
km/h
Spd
kts
Gust
kts
20/11:30pm - - - - - NNW 15 17 8 9 - - -
20/11:00pm - - - - - NW 13 15 7 8 - - -

Other Formats:

Comma delimited format used in spreadsheet applications
http://www.bom.gov.au/fwo/IDQ60801/IDQ60801.94590.axf

JavaScript Object Notation format (JSON) in row-major order
http://www.bom.gov.au/fwo/IDQ60801/IDQ60801.94590.json